Tsu, Japan

6:08 PM JST on September 03, 2015 (GMT +0900)
SUZUKA | | Change Station
CLOSE
Current Station
Personal Weather Station
Location: %u9234%u9E7F%u5E02, %U4E09%U91CD%U770C
Elevation: 33 ft
Nearby Weather Stations

Elev 33 ft 34.88 °N, 136.57 °E | Updated 4 seconds ago

Rain Showers
Showers Rain
73.8 °F
Feels Like 70 °F
N
0.0
Wind Variable Wind from North
Gusts 0.0 mph

Today
High -- | Low -- °F
--% Chance of Precip.
Yesterday
High -- | Low -- °F
Precip. -- in
5:27 AM 6:18 PM
Waning Gibbous, 72% visible
Pressure 29.83 in
Visibility 3.7 miles
Clouds Few 500 ft
Scattered Clouds 1500 ft
Mostly Cloudy 2500 ft
Heat Index 70 °F
Dew Point 72 °F
Humidity 96%
Rainfall 0.30 in
Snow Depth Not available.
UV 0 out of 12
Pollen Not available.
Air Quality Not available.
Flu Activity Not available.
METAR RJGG 030900Z 11009KT 6000 SHRA FEW005 SCT015 BKN025 23/21 Q1010 BECMG -SHRA TEMPO FEW005 SCT008 BKN012
Pressure 29.83 in
Visibility 3.7 miles
Clouds Few 500 ft
Scattered Clouds 1500 ft
Mostly Cloudy 2500 ft
Heat Index 70 °F
Dew Point 72 °F
Humidity 96%
Rainfall 0.30 in
Snow Depth Not available.
UV 0 out of 12
Pollen Not available.
Air Quality Not available.
Flu Activity Not available.
METAR RJGG 030900Z 11009KT 6000 SHRA FEW005 SCT015 BKN025 23/21 Q1010 BECMG -SHRA TEMPO FEW005 SCT008 BKN012

10-Day Weather Forecast

×

Almanac

Astronomy

Sep. 03, 2015 Rise Set
Actual Time
Civil Twilight
Nautical Twilight
Astronomical Twilight
Moon
Length of Visible Light
Length of Day
Tomorrow will be .
, % of the Moon is Illuminated

Today's Extremes

Country Highs Country Lows

Community

WunderPhotos

Upload Photos

1,851,922 photos uploaded!

WunderBlogs® & News

Nearby

Air Quality

  Air Quality AQ Index Pollutant
Not available.

Snow Depth

Station Depth Elevation

Earthquake Activity

City Distance Mag. Time & Date
Minimum magnitude displayed is 2.5.

Coastal Water Temperatures

Place Temperature

Stations

Nearby Weather Stations

Station Location Temp. Windchill Dew Point Humidity Wind Precip. Elev Updated Type